createdAt,value
2023-09-23T00:00:17.307Z,1.30
2023-09-23T00:02:20.553Z,1.40
2023-09-23T00:04:31.175Z,1.30
2023-09-23T00:06:39.328Z,1.25
2023-09-23T00:08:48.472Z,1.45
2023-09-23T00:10:54.511Z,1.20
2023-09-23T00:13:00.029Z,1.60
2023-09-23T00:15:07.772Z,1.35
2023-09-23T00:17:13.232Z,1.35
2023-09-23T00:19:19.656Z,1.40
2023-09-23T00:21:25.433Z,1.42
2023-09-23T00:23:33.956Z,1.70
2023-09-23T00:25:40.290Z,1.40
2023-09-23T00:27:45.888Z,1.30
2023-09-23T00:29:54.432Z,1.60
2023-09-23T00:31:59.883Z,1.05
2023-09-23T00:34:06.125Z,1.30
2023-09-23T00:36:10.729Z,1.48
2023-09-23T00:38:16.888Z,1.27
2023-09-23T00:40:31.824Z,1.08
2023-09-23T00:42:40.663Z,1.40
2023-09-23T00:44:46.113Z,1.23
2023-09-23T00:46:51.986Z,1.40
2023-09-23T00:49:01.464Z,1.08
2023-09-23T00:51:08.222Z,1.17
2023-09-23T00:53:14.333Z,1.60
2023-09-23T00:55:20.407Z,1.30
2023-09-23T00:57:29.826Z,1.10
2023-09-23T00:59:36.792Z,1.10
2023-09-23T01:01:43.522Z,1.35
2023-09-23T01:03:49.622Z,1.20
2023-09-23T01:06:17.769Z,1.10
2023-09-23T01:08:31.324Z,0.90
2023-09-23T01:10:37.352Z,0.80
2023-09-23T01:12:45.864Z,1.13
2023-09-23T01:14:53.671Z,0.90
2023-09-23T01:16:59.904Z,0.88
2023-09-23T01:19:06.818Z,1.20
2023-09-23T01:21:12.276Z,1.10
2023-09-23T01:23:21.963Z,0.90
2023-09-23T01:25:28.839Z,1.10
2023-09-23T01:27:35.816Z,1.02
2023-09-23T01:31:57.704Z,1.08
2023-09-23T01:34:04.830Z,1.10
2023-09-23T01:36:12.971Z,0.80
2023-09-23T01:38:21.260Z,1.10
2023-09-23T01:40:30.575Z,1.10
2023-09-23T01:42:34.054Z,1.00
2023-09-23T01:44:40.250Z,1.27
2023-09-23T01:46:46.142Z,1.08
2023-09-23T01:48:51.650Z,1.00
2023-09-23T01:50:58.525Z,0.80
2023-09-23T01:53:04.553Z,0.95
2023-09-23T01:55:13.694Z,0.77
2023-09-23T01:57:22.197Z,0.77
2023-09-23T01:59:28.191Z,0.98
2023-09-23T02:01:34.723Z,0.70
2023-09-23T02:03:40.595Z,0.70
2023-09-23T02:05:47.055Z,0.88
2023-09-23T02:07:52.107Z,0.60
2023-09-23T02:09:57.609Z,0.60
2023-09-23T02:12:03.101Z,0.70
2023-09-23T02:14:09.512Z,0.60
2023-09-23T02:16:18.520Z,0.60
2023-09-23T02:20:29.869Z,0.88
2023-09-23T02:22:32.765Z,0.90
2023-09-23T02:24:38.729Z,0.77
2023-09-23T02:26:47.534Z,0.88
2023-09-23T02:28:56.046Z,0.82
2023-09-23T02:31:01.602Z,0.75
2023-09-23T02:33:08.396Z,0.70
2023-09-23T02:35:16.693Z,0.57
2023-09-23T02:37:22.264Z,0.85
2023-09-23T02:39:28.625Z,0.80
2023-09-23T02:41:34.778Z,0.60
2023-09-23T02:43:41.760Z,0.70
2023-09-23T02:45:51.808Z,0.90
2023-09-23T02:47:58.588Z,0.60
2023-09-23T02:50:01.584Z,0.70
2023-09-23T02:52:08.005Z,0.80
2023-09-23T02:54:15.412Z,0.60
2023-09-23T02:56:21.195Z,0.60
2023-09-23T02:58:26.704Z,0.60
2023-09-23T03:00:34.649Z,0.70
2023-09-23T03:02:47.320Z,0.70
2023-09-23T03:04:59.630Z,0.80
2023-09-23T03:07:11.113Z,0.57
2023-09-23T03:09:18.643Z,0.63
2023-09-23T03:11:28.446Z,0.68
2023-09-23T03:13:36.011Z,0.80
2023-09-23T03:17:53.024Z,0.90
2023-09-23T03:20:01.553Z,0.70
2023-09-23T03:22:09.177Z,0.80
2023-09-23T03:24:16.866Z,0.90
2023-09-23T03:28:28.563Z,1.00
2023-09-23T03:30:35.071Z,0.68
2023-09-23T03:32:40.741Z,0.77
2023-09-23T03:34:52.132Z,1.00
2023-09-23T03:36:59.991Z,0.70
2023-09-23T03:41:25.049Z,1.20
2023-09-23T03:43:31.240Z,0.80
2023-09-23T03:45:37.712Z,1.10
2023-09-23T03:47:43.792Z,1.05
2023-09-23T03:49:52.364Z,1.00
2023-09-23T03:51:58.340Z,1.23
2023-09-23T03:54:04.553Z,1.10
2023-09-23T03:56:10.395Z,1.48
2023-09-23T03:58:18.539Z,1.33
2023-09-23T04:00:27.888Z,1.17
2023-09-23T04:02:34.895Z,1.23
2023-09-23T04:04:41.232Z,1.48
2023-09-23T04:06:50.054Z,1.58
2023-09-23T04:08:56.433Z,1.67
2023-09-23T04:11:07.012Z,1.77
2023-09-23T04:13:15.789Z,1.95
2023-09-23T04:15:22.692Z,2.10
2023-09-23T04:17:28.159Z,1.90
2023-09-23T04:19:33.964Z,2.22
2023-09-23T04:21:39.896Z,2.10
2023-09-23T04:23:48.214Z,1.95
2023-09-23T04:25:54.289Z,1.83
2023-09-23T04:27:59.821Z,2.03
2023-09-23T04:30:06.281Z,2.22
2023-09-23T04:32:13.632Z,1.92
2023-09-23T04:34:19.423Z,1.52
2023-09-23T04:38:32.322Z,1.85
2023-09-23T04:40:41.278Z,1.80
2023-09-23T04:42:49.737Z,1.63
2023-09-23T04:44:56.258Z,1.20
2023-09-23T04:47:01.827Z,1.40
2023-09-23T04:49:08.339Z,1.35
2023-09-23T04:51:14.089Z,1.40
2023-09-23T04:53:19.933Z,1.30
2023-09-23T04:55:25.848Z,1.35
2023-09-23T04:57:34.037Z,1.10
2023-09-23T04:59:40.588Z,1.40
2023-09-23T05:01:47.703Z,1.40
2023-09-23T05:03:53.579Z,1.65
2023-09-23T05:05:59.375Z,1.35
2023-09-23T05:08:03.445Z,1.65
2023-09-23T05:10:10.450Z,1.92
2023-09-23T05:12:15.844Z,2.85
2023-09-23T05:14:26.804Z,1.90
2023-09-23T05:16:32.334Z,1.50
2023-09-23T05:18:39.813Z,2.00
2023-09-23T05:20:49.491Z,1.58
2023-09-23T05:22:55.336Z,1.63
2023-09-23T05:25:00.776Z,1.40
2023-09-23T05:27:07.065Z,1.92
2023-09-23T05:29:12.758Z,1.52
2023-09-23T05:31:21.324Z,1.65
2023-09-23T05:33:27.730Z,1.40
2023-09-23T05:35:33.258Z,1.60
2023-09-23T05:37:39.128Z,1.58
2023-09-23T05:39:47.691Z,1.70
2023-09-23T05:44:01.051Z,2.42
2023-09-23T05:46:10.893Z,1.70
2023-09-23T05:48:19.539Z,1.35
2023-09-23T05:50:25.678Z,1.70
2023-09-23T05:52:32.574Z,1.60
2023-09-23T05:54:38.126Z,1.63
2023-09-23T05:56:45.379Z,1.67
2023-09-23T05:58:52.033Z,2.00
2023-09-23T06:00:57.686Z,1.67
2023-09-23T06:03:03.303Z,1.92
2023-09-23T06:05:13.567Z,1.80
2023-09-23T06:07:19.533Z,1.70
2023-09-23T06:09:25.859Z,1.92
2023-09-23T06:11:31.398Z,2.03
2023-09-23T06:13:37.124Z,2.03
2023-09-23T06:15:43.104Z,2.30
2023-09-23T06:17:48.843Z,1.80
2023-09-23T06:19:54.938Z,2.17
2023-09-23T06:22:03.730Z,2.28
2023-09-23T06:24:11.844Z,1.92
2023-09-23T06:26:17.882Z,2.40
2023-09-23T06:28:23.808Z,2.13
2023-09-23T06:30:30.949Z,1.95
2023-09-23T06:32:36.858Z,2.17
2023-09-23T06:34:42.852Z,1.80
2023-09-23T06:36:46.092Z,1.98
2023-09-23T06:38:54.122Z,1.60
2023-09-23T06:41:00.779Z,1.95
2023-09-23T06:43:06.336Z,2.05
2023-09-23T06:45:13.506Z,1.85
2023-09-23T06:47:19.050Z,1.73
2023-09-23T06:49:25.546Z,1.60
2023-09-23T06:51:31.619Z,2.28
2023-09-23T06:53:37.513Z,2.00
2023-09-23T06:55:45.797Z,2.10
2023-09-23T06:57:51.581Z,2.17
2023-09-23T06:59:57.016Z,2.00
2023-09-23T07:02:02.970Z,2.10
2023-09-23T07:04:10.358Z,1.95
2023-09-23T07:06:16.854Z,2.10
2023-09-23T07:08:22.345Z,1.98
2023-09-23T07:10:25.277Z,1.85
2023-09-23T07:12:33.340Z,2.08
2023-09-23T07:14:39.833Z,2.17
2023-09-23T07:16:45.283Z,2.30
2023-09-23T07:18:52.717Z,1.88
2023-09-23T07:21:00.654Z,1.95
2023-09-23T07:23:07.693Z,2.33
2023-09-23T07:25:13.501Z,2.25
2023-09-23T07:29:28.971Z,1.60
2023-09-23T07:31:34.511Z,1.77
2023-09-23T07:33:40.343Z,1.90
2023-09-23T07:35:44.374Z,2.20
2023-09-23T07:37:51.183Z,2.17
2023-09-23T07:39:56.846Z,1.42
2023-09-23T07:42:02.367Z,1.98
2023-09-23T07:44:08.786Z,1.55
2023-09-23T07:46:16.894Z,1.60
2023-09-23T07:48:22.877Z,1.52
2023-09-23T07:50:29.813Z,1.55
2023-09-23T07:52:38.575Z,1.70
2023-09-23T07:54:41.424Z,1.95
2023-09-23T07:56:47.930Z,1.50
2023-09-23T07:58:53.737Z,1.70
2023-09-23T08:00:59.192Z,1.80
2023-09-23T08:03:05.950Z,1.60
2023-09-23T08:05:12.307Z,1.60
2023-09-23T08:07:18.342Z,1.83
2023-09-23T08:09:23.750Z,1.98
2023-09-23T08:11:30.130Z,1.73
2023-09-23T08:13:36.272Z,1.90
2023-09-23T08:15:42.205Z,2.17
2023-09-23T08:17:47.797Z,1.58
2023-09-23T08:19:57.616Z,1.92
2023-09-23T08:22:03.113Z,2.00
2023-09-23T08:24:09.696Z,1.95
2023-09-23T08:26:15.927Z,2.47
2023-09-23T08:28:21.413Z,2.10
2023-09-23T08:30:31.060Z,2.00
2023-09-23T08:32:37.297Z,2.10
2023-09-23T08:34:43.631Z,1.85
2023-09-23T08:36:51.857Z,2.42
2023-09-23T08:38:57.274Z,1.90
2023-09-23T08:41:04.596Z,1.90
2023-09-23T08:43:10.592Z,2.08
2023-09-23T08:45:16.839Z,2.45
2023-09-23T08:47:24.221Z,2.35
2023-09-23T08:49:32.030Z,1.85
2023-09-23T08:51:39.403Z,1.67
2023-09-23T08:53:49.950Z,1.80
2023-09-23T08:55:55.872Z,1.20
2023-09-23T08:58:04.587Z,1.80
2023-09-23T09:00:12.534Z,1.90
2023-09-23T09:02:24.258Z,1.63
2023-09-23T09:04:30.584Z,2.17
2023-09-23T09:06:36.222Z,1.50
2023-09-23T09:08:41.680Z,1.90
2023-09-23T09:10:50.450Z,1.65
2023-09-23T09:12:59.605Z,1.83
2023-09-23T09:15:06.122Z,1.70
2023-09-23T09:17:13.794Z,1.40
2023-09-23T09:19:20.900Z,1.30
2023-09-23T09:21:26.732Z,1.77
2023-09-23T09:23:34.293Z,1.83
2023-09-23T09:25:39.846Z,1.98
2023-09-23T09:27:48.260Z,1.70
2023-09-23T09:30:03.517Z,1.65
2023-09-23T09:32:18.501Z,1.77
2023-09-23T09:34:30.985Z,1.60
2023-09-23T09:36:38.181Z,1.67
2023-09-23T09:38:47.624Z,1.90
2023-09-23T09:43:13.037Z,1.60
2023-09-23T09:45:20.729Z,1.67
2023-09-23T09:47:28.594Z,1.52
2023-09-23T09:49:36.322Z,1.17
2023-09-23T09:51:43.879Z,1.60
2023-09-23T09:53:50.117Z,1.20
2023-09-23T09:55:54.166Z,1.10
2023-09-23T09:58:02.883Z,1.30
2023-09-23T10:00:17.156Z,1.02
2023-09-23T10:02:25.683Z,1.20
2023-09-23T10:04:35.929Z,1.08
2023-09-23T10:06:44.799Z,1.33
2023-09-23T10:08:50.869Z,1.70
2023-09-23T10:11:04.196Z,1.20
2023-09-23T10:13:15.812Z,1.20
2023-09-23T10:15:33.225Z,1.70
2023-09-23T10:17:42.768Z,1.88
2023-09-23T10:19:50.923Z,1.40
2023-09-23T10:21:56.839Z,0.93
2023-09-23T10:24:04.656Z,1.15
2023-09-23T10:26:20.418Z,1.30
2023-09-23T10:28:29.485Z,1.30
2023-09-23T10:30:39.357Z,1.55
2023-09-23T10:32:47.963Z,1.48
2023-09-23T10:34:57.237Z,1.30
2023-09-23T10:37:00.186Z,1.33
2023-09-23T10:39:08.384Z,1.55
2023-09-23T10:41:14.019Z,1.20
2023-09-23T10:43:19.980Z,1.50
2023-09-23T10:45:25.756Z,1.35
2023-09-23T10:47:35.209Z,1.27
2023-09-23T10:49:41.099Z,1.50
2023-09-23T10:51:46.841Z,1.17
2023-09-23T10:53:57.138Z,1.50
2023-09-23T10:56:03.332Z,1.20
2023-09-23T10:58:09.869Z,1.33
2023-09-23T11:00:21.766Z,1.30
2023-09-23T11:02:27.961Z,1.10
2023-09-23T11:04:37.348Z,1.40
2023-09-23T11:06:43.280Z,1.48
2023-09-23T11:08:48.856Z,1.10
2023-09-23T11:10:57.348Z,1.02
2023-09-23T11:13:02.971Z,1.20
2023-09-23T11:15:10.952Z,1.20
2023-09-23T11:17:27.720Z,1.23
2023-09-23T11:19:36.831Z,1.35
2023-09-23T11:21:47.840Z,1.00
2023-09-23T11:24:01.277Z,1.27
2023-09-23T11:26:07.326Z,1.20
2023-09-23T11:28:20.998Z,1.45
2023-09-23T11:30:27.602Z,1.13
2023-09-23T11:32:33.062Z,1.40
2023-09-23T11:34:41.173Z,0.82
2023-09-23T11:36:46.668Z,1.00
2023-09-23T11:38:50.920Z,1.00
2023-09-23T11:40:58.356Z,1.00
2023-09-23T11:43:04.123Z,1.25
2023-09-23T11:45:11.413Z,1.08
2023-09-23T11:47:19.209Z,1.00
2023-09-23T11:49:27.477Z,1.05
2023-09-23T11:51:36.304Z,1.00
2023-09-23T11:53:42.512Z,1.10
2023-09-23T11:55:50.757Z,1.48
2023-09-23T11:57:56.206Z,1.45
2023-09-23T12:00:01.663Z,0.98
2023-09-23T12:02:13.780Z,1.35
2023-09-23T12:04:19.821Z,0.90
2023-09-23T12:06:25.892Z,1.23
2023-09-23T12:08:34.383Z,1.15
2023-09-23T12:10:37.633Z,1.20
2023-09-23T12:12:44.616Z,0.82
2023-09-23T12:14:51.790Z,1.10
2023-09-23T12:16:58.074Z,0.93
2023-09-23T12:19:03.490Z,0.82
2023-09-23T12:21:09.551Z,1.00
2023-09-23T12:23:16.822Z,1.10
2023-09-23T12:27:31.746Z,1.17
2023-09-23T12:29:37.232Z,1.67
2023-09-23T12:31:42.827Z,0.93
2023-09-23T12:33:48.602Z,1.17
2023-09-23T12:35:55.367Z,0.83
2023-09-23T12:38:01.888Z,0.90
2023-09-23T12:40:08.960Z,1.02
2023-09-23T12:42:20.824Z,0.93
2023-09-23T12:44:26.854Z,0.95
2023-09-23T12:46:32.964Z,1.00
2023-09-23T12:48:41.962Z,0.80
2023-09-23T12:50:47.660Z,1.00
2023-09-23T12:52:54.926Z,1.02
2023-09-23T12:55:00.613Z,1.35
2023-09-23T12:57:07.314Z,1.00
2023-09-23T12:59:15.357Z,1.10
2023-09-23T13:01:21.205Z,1.98
2023-09-23T13:03:28.985Z,1.02
2023-09-23T13:05:35.236Z,1.40
2023-09-23T13:07:40.649Z,0.98
2023-09-23T13:09:46.519Z,0.98
2023-09-23T13:11:52.026Z,1.23
2023-09-23T13:13:58.427Z,1.10
2023-09-23T13:16:09.696Z,0.93
2023-09-23T13:18:15.212Z,1.23
2023-09-23T13:20:21.527Z,1.55
2023-09-23T13:22:24.458Z,0.88
2023-09-23T13:24:32.665Z,1.23
2023-09-23T13:26:39.027Z,1.00
2023-09-23T13:28:44.718Z,0.80
2023-09-23T13:30:50.378Z,0.88
2023-09-23T13:32:57.029Z,0.90
2023-09-23T13:35:02.576Z,1.10
2023-09-23T13:37:09.054Z,1.13
2023-09-23T13:39:16.299Z,1.10
2023-09-23T13:41:21.864Z,1.05
2023-09-23T13:43:27.705Z,1.42
2023-09-23T13:45:33.891Z,1.20
2023-09-23T13:47:41.076Z,1.20
2023-09-23T13:49:49.582Z,1.02
2023-09-23T13:51:57.760Z,1.20
2023-09-23T13:54:01.066Z,1.10
2023-09-23T13:56:06.710Z,1.30
2023-09-23T13:58:14.128Z,0.93
2023-09-23T14:00:19.999Z,1.15
2023-09-23T14:02:26.059Z,0.90
2023-09-23T14:04:32.152Z,0.98
2023-09-23T14:06:40.952Z,0.93
2023-09-23T14:08:44.882Z,0.95
2023-09-23T14:10:50.401Z,1.00
2023-09-23T14:12:57.431Z,1.02
2023-09-23T14:15:00.541Z,1.48
2023-09-23T14:17:06.299Z,1.40
2023-09-23T14:19:11.730Z,0.90
2023-09-23T14:21:19.977Z,1.08
2023-09-23T14:23:25.426Z,1.05
2023-09-23T14:25:32.024Z,0.90
2023-09-23T14:27:37.457Z,0.90
2023-09-23T14:29:43.620Z,1.00
2023-09-23T14:31:49.828Z,1.20
2023-09-23T14:33:57.405Z,1.20
2023-09-23T14:36:05.973Z,1.10
2023-09-23T14:38:12.221Z,1.00
2023-09-23T14:40:20.204Z,1.08
2023-09-23T14:42:23.652Z,1.20
2023-09-23T14:44:29.165Z,0.88
2023-09-23T14:46:33.002Z,1.10
2023-09-23T14:48:39.177Z,1.15
2023-09-23T14:50:45.100Z,1.30
2023-09-23T14:52:50.964Z,1.20
2023-09-23T14:54:57.081Z,1.00
2023-09-23T14:57:05.497Z,1.00
2023-09-23T14:59:11.501Z,0.98
2023-09-23T15:01:17.501Z,1.30
2023-09-23T15:03:23.148Z,1.23
2023-09-23T15:05:29.455Z,1.38
2023-09-23T15:07:34.978Z,1.40
2023-09-23T15:09:40.980Z,0.98
2023-09-23T15:11:47.038Z,1.15
2023-09-23T15:13:56.986Z,1.20
2023-09-23T15:16:03.575Z,0.82
2023-09-23T15:18:10.558Z,1.10
2023-09-23T15:20:17.815Z,1.50
2023-09-23T15:22:24.207Z,1.20
2023-09-23T15:24:30.817Z,1.40
2023-09-23T15:26:36.674Z,1.42
2023-09-23T15:28:42.948Z,1.00
2023-09-23T15:30:51.025Z,1.38
2023-09-23T15:32:56.608Z,1.25
2023-09-23T15:34:59.682Z,1.10
2023-09-23T15:37:05.085Z,1.30
2023-09-23T15:39:13.683Z,1.13
2023-09-23T15:41:19.611Z,1.40
2023-09-23T15:43:25.449Z,1.23
2023-09-23T15:45:31.634Z,1.00
2023-09-23T15:47:44.120Z,1.42
2023-09-23T15:49:50.173Z,1.40
2023-09-23T15:51:55.858Z,1.27
2023-09-23T15:54:01.794Z,1.20
2023-09-23T15:56:10.851Z,1.30
2023-09-23T15:58:16.398Z,1.17
2023-09-23T16:04:39.350Z,1.30
2023-09-23T16:06:44.807Z,1.10
2023-09-23T16:08:48.249Z,1.35
2023-09-23T16:10:54.279Z,1.42
2023-09-23T16:12:59.717Z,1.35
2023-09-23T16:15:06.228Z,1.15
2023-09-23T16:17:11.955Z,1.08
2023-09-23T16:19:18.643Z,1.63
2023-09-23T16:21:27.095Z,1.20
2023-09-23T16:23:33.414Z,1.48
2023-09-23T16:25:36.625Z,1.42
2023-09-23T16:27:43.383Z,1.30
2023-09-23T16:29:49.265Z,1.17
2023-09-23T16:31:57.648Z,1.20
2023-09-23T16:34:04.429Z,1.55
2023-09-23T16:36:10.393Z,1.50
2023-09-23T16:40:27.005Z,1.10
2023-09-23T16:42:32.592Z,1.40
2023-09-23T16:44:41.314Z,1.35
2023-09-23T16:46:47.838Z,1.15
2023-09-23T16:48:53.764Z,1.40
2023-09-23T16:50:59.442Z,1.48
2023-09-23T16:53:05.404Z,1.23
2023-09-23T16:55:20.034Z,1.35
2023-09-23T16:57:27.055Z,1.13
2023-09-23T16:59:33.029Z,1.30
2023-09-23T17:01:39.285Z,1.60
2023-09-23T17:03:45.437Z,1.73
2023-09-23T17:05:52.277Z,1.60
2023-09-23T17:07:58.898Z,1.80
2023-09-23T17:10:05.004Z,1.48
2023-09-23T17:12:14.392Z,1.55
2023-09-23T17:14:21.963Z,1.50
2023-09-23T17:16:27.594Z,1.42
2023-09-23T17:18:34.173Z,1.65
2023-09-23T17:20:39.746Z,1.50
2023-09-23T17:27:02.143Z,1.77
2023-09-23T17:29:09.155Z,2.17
2023-09-23T17:31:14.698Z,1.90
2023-09-23T17:33:20.560Z,1.80
2023-09-23T17:35:26.709Z,2.20
2023-09-23T17:37:32.542Z,1.63
2023-09-23T17:39:38.074Z,1.80
2023-09-23T17:41:43.650Z,1.65
2023-09-23T17:43:49.232Z,1.67
2023-09-23T17:45:57.290Z,1.98
2023-09-23T17:48:04.362Z,1.95
2023-09-23T17:50:11.501Z,2.30
2023-09-23T17:52:18.187Z,2.38
2023-09-23T17:54:24.326Z,2.08
2023-09-23T17:56:31.217Z,1.92
2023-09-23T17:58:37.181Z,1.77
2023-09-23T18:00:42.639Z,2.08
2023-09-23T18:02:51.350Z,2.00
2023-09-23T18:04:56.912Z,1.83
2023-09-23T18:07:05.457Z,1.98
2023-09-23T18:09:11.247Z,2.40
2023-09-23T18:11:17.376Z,1.98
2023-09-23T18:13:22.181Z,1.80
2023-09-23T18:15:30.458Z,1.80
2023-09-23T18:17:35.979Z,1.80
2023-09-23T18:19:46.192Z,2.00
2023-09-23T18:21:53.527Z,1.95
2023-09-23T18:23:59.085Z,2.13
2023-09-23T18:26:04.234Z,2.00
2023-09-23T18:28:10.216Z,1.90
2023-09-23T18:30:17.107Z,2.00
2023-09-23T18:32:20.527Z,1.98
2023-09-23T18:34:27.330Z,2.20
2023-09-23T18:36:35.680Z,2.22
2023-09-23T18:38:41.229Z,2.30
2023-09-23T18:40:46.897Z,2.00
2023-09-23T18:42:56.091Z,2.70
2023-09-23T18:45:02.237Z,2.53
2023-09-23T18:47:08.321Z,3.00
2023-09-23T18:49:11.351Z,2.75
2023-09-23T18:51:16.962Z,2.50
2023-09-23T18:53:25.310Z,3.33
2023-09-23T18:55:30.869Z,2.40
2023-09-23T18:57:36.367Z,2.95
2023-09-23T18:59:42.182Z,2.83
2023-09-23T19:01:48.778Z,2.35
2023-09-23T19:03:54.463Z,2.85
2023-09-23T19:06:00.371Z,2.40
2023-09-23T19:08:06.995Z,2.40
2023-09-23T19:10:15.587Z,2.40
2023-09-23T19:12:21.301Z,2.60
2023-09-23T19:14:26.767Z,2.40
2023-09-23T19:16:32.586Z,3.03
2023-09-23T19:18:39.248Z,2.67
2023-09-23T19:20:46.145Z,2.63
2023-09-23T19:22:51.678Z,2.90
2023-09-23T19:24:58.237Z,2.90
2023-09-23T19:27:07.434Z,2.90
2023-09-23T19:29:12.963Z,2.97
2023-09-23T19:31:20.339Z,3.03
2023-09-23T19:33:26.352Z,3.08
2023-09-23T19:37:41.502Z,2.92
2023-09-23T19:39:47.467Z,2.90
2023-09-23T19:41:53.208Z,3.22
2023-09-23T19:44:01.641Z,3.22
2023-09-23T19:46:09.584Z,3.28
2023-09-23T19:50:21.441Z,2.95
2023-09-23T19:52:27.541Z,3.55
2023-09-23T19:54:32.962Z,3.17
2023-09-23T19:56:41.717Z,3.63
2023-09-23T19:58:48.519Z,3.00
2023-09-23T20:00:57.094Z,2.95
2023-09-23T20:03:07.605Z,3.28
2023-09-23T20:05:13.809Z,2.92
2023-09-23T20:07:20.123Z,2.90
2023-09-23T20:09:25.947Z,3.10
2023-09-23T20:11:31.527Z,2.90
2023-09-23T20:13:37.456Z,3.35
2023-09-23T20:15:42.961Z,2.70
2023-09-23T20:17:57.560Z,3.15
2023-09-23T20:20:05.989Z,3.22
2023-09-23T20:22:11.858Z,2.70
2023-09-23T20:24:17.304Z,3.20
2023-09-23T20:26:24.057Z,2.90
2023-09-23T20:28:29.722Z,2.90
2023-09-23T20:30:35.407Z,2.97
2023-09-23T20:32:41.320Z,2.88
2023-09-23T20:34:49.848Z,3.25
2023-09-23T20:36:57.326Z,3.03
2023-09-23T20:39:03.178Z,2.92
2023-09-23T20:41:07.671Z,2.88
2023-09-23T20:43:13.386Z,3.90
2023-09-23T20:45:19.342Z,3.08
2023-09-23T20:47:25.954Z,3.50
2023-09-23T20:49:31.942Z,3.83
2023-09-23T20:51:40.042Z,3.78
2023-09-23T20:53:46.109Z,3.85
2023-09-23T20:55:52.259Z,3.40
2023-09-23T20:57:55.093Z,4.38
2023-09-23T21:00:02.265Z,5.20
2023-09-23T21:02:07.837Z,5.65
2023-09-23T21:04:15.015Z,5.47
2023-09-23T21:06:20.537Z,4.40
2023-09-23T21:08:29.791Z,4.55
2023-09-23T21:10:36.260Z,3.70
2023-09-23T21:12:39.447Z,4.50
2023-09-23T21:14:45.190Z,4.10
2023-09-23T21:16:51.135Z,4.10
2023-09-23T21:18:59.328Z,3.88
2023-09-23T21:23:10.109Z,3.65
2023-09-23T21:25:18.237Z,6.70
2023-09-23T21:27:23.684Z,4.20
2023-09-23T21:29:29.212Z,3.22
2023-09-23T21:31:35.453Z,3.50
2023-09-23T21:33:41.706Z,3.65
2023-09-23T21:35:48.230Z,3.40
2023-09-23T21:37:53.803Z,4.10
2023-09-23T21:39:56.975Z,4.38
2023-09-23T21:42:05.672Z,4.22
2023-09-23T21:44:12.117Z,3.78
2023-09-23T21:46:20.859Z,4.13
2023-09-23T21:48:28.062Z,4.15
2023-09-23T21:50:33.570Z,3.60
2023-09-23T21:52:40.120Z,3.60
2023-09-23T21:54:46.584Z,4.07
2023-09-23T21:56:52.400Z,3.50
2023-09-23T21:59:00.504Z,4.05
2023-09-23T22:01:06.056Z,3.60
2023-09-23T22:03:12.981Z,3.80
2023-09-23T22:05:18.803Z,3.63
2023-09-23T22:07:24.558Z,4.00
2023-09-23T22:09:31.307Z,4.07
2023-09-23T22:11:37.475Z,3.83
2023-09-23T22:13:43.310Z,4.00
2023-09-23T22:15:51.815Z,4.25
2023-09-23T22:17:59.224Z,4.22
2023-09-23T22:20:05.422Z,3.38
2023-09-23T22:22:17.393Z,4.32
2023-09-23T22:24:25.719Z,3.00
2023-09-23T22:26:31.905Z,3.80
2023-09-23T22:28:37.360Z,3.47
2023-09-23T22:30:43.746Z,3.13
2023-09-23T22:32:56.218Z,3.67
2023-09-23T22:35:03.654Z,3.90
2023-09-23T22:37:09.738Z,4.95
2023-09-23T22:39:15.721Z,5.07
2023-09-23T22:41:21.539Z,4.22
2023-09-23T22:43:27.826Z,4.03
2023-09-23T22:45:39.250Z,3.85
2023-09-23T22:47:47.452Z,3.70
2023-09-23T22:49:56.569Z,3.25
2023-09-23T22:52:04.913Z,3.13
2023-09-23T22:54:11.147Z,3.90
2023-09-23T22:56:16.882Z,4.13
2023-09-23T22:58:20.412Z,5.70
2023-09-23T23:00:29.618Z,4.22
2023-09-23T23:02:35.224Z,5.72
2023-09-23T23:04:40.908Z,5.80
2023-09-23T23:06:49.549Z,6.07
2023-09-23T23:08:55.117Z,5.63
2023-09-23T23:11:01.238Z,5.85
2023-09-23T23:13:10.719Z,5.20
2023-09-23T23:15:17.074Z,6.10
2023-09-23T23:17:23.509Z,5.38
2023-09-23T23:19:29.327Z,4.22
2023-09-23T23:21:34.906Z,4.25
2023-09-23T23:23:43.214Z,4.75
2023-09-23T23:25:49.377Z,4.55
2023-09-23T23:27:55.540Z,4.75
2023-09-23T23:30:01.172Z,5.30
2023-09-23T23:32:07.785Z,3.95
2023-09-23T23:34:13.523Z,4.47
2023-09-23T23:36:19.813Z,5.03
2023-09-23T23:38:25.558Z,5.25
2023-09-23T23:40:37.359Z,4.88
2023-09-23T23:42:40.639Z,4.57
2023-09-23T23:44:47.650Z,4.75
2023-09-23T23:46:53.248Z,4.23
2023-09-23T23:48:56.321Z,5.13
2023-09-23T23:51:06.858Z,4.40
2023-09-23T23:53:12.344Z,4.47
2023-09-23T23:55:18.143Z,4.55
2023-09-23T23:57:26.489Z,5.00
2023-09-23T23:59:32.431Z,4.60
